sensor_id;sensor_type;location;lat;lon;timestamp;P1;durP1;ratioP1;P2;durP2;ratioP2
35294;SDS011;21413;48.032;7.764;2022-07-29T00:00:57;8.13;;;5.10;;
35294;SDS011;21413;48.032;7.764;2022-07-29T00:03:23;6.17;;;5.70;;
35294;SDS011;21413;48.032;7.764;2022-07-29T00:05:49;7.17;;;5.63;;
35294;SDS011;21413;48.032;7.764;2022-07-29T00:08:17;6.10;;;5.70;;
35294;SDS011;21413;48.032;7.764;2022-07-29T00:10:44;5.97;;;5.47;;
35294;SDS011;21413;48.032;7.764;2022-07-29T00:13:10;5.40;;;5.20;;
35294;SDS011;21413;48.032;7.764;2022-07-29T00:15:36;6.83;;;6.23;;
35294;SDS011;21413;48.032;7.764;2022-07-29T00:18:02;5.50;;;5.30;;
35294;SDS011;21413;48.032;7.764;2022-07-29T00:20:28;5.53;;;5.23;;
35294;SDS011;21413;48.032;7.764;2022-07-29T00:22:54;6.97;;;6.47;;
35294;SDS011;21413;48.032;7.764;2022-07-29T00:25:20;5.47;;;5.07;;
35294;SDS011;21413;48.032;7.764;2022-07-29T00:27:46;5.50;;;5.30;;
35294;SDS011;21413;48.032;7.764;2022-07-29T00:30:12;6.17;;;5.60;;
35294;SDS011;21413;48.032;7.764;2022-07-29T00:32:38;6.10;;;5.50;;
35294;SDS011;21413;48.032;7.764;2022-07-29T00:35:04;5.80;;;5.53;;
35294;SDS011;21413;48.032;7.764;2022-07-29T00:37:49;5.50;;;5.17;;
35294;SDS011;21413;48.032;7.764;2022-07-29T00:40:15;6.23;;;5.93;;
35294;SDS011;21413;48.032;7.764;2022-07-29T00:42:42;6.03;;;5.70;;
35294;SDS011;21413;48.032;7.764;2022-07-29T00:45:08;6.30;;;5.70;;
35294;SDS011;21413;48.032;7.764;2022-07-29T00:47:34;6.40;;;5.93;;
35294;SDS011;21413;48.032;7.764;2022-07-29T00:50:00;6.03;;;5.77;;
35294;SDS011;21413;48.032;7.764;2022-07-29T00:52:26;6.30;;;5.70;;
35294;SDS011;21413;48.032;7.764;2022-07-29T00:54:52;8.73;;;6.37;;
35294;SDS011;21413;48.032;7.764;2022-07-29T00:57:18;7.13;;;5.67;;
35294;SDS011;21413;48.032;7.764;2022-07-29T00:59:45;6.57;;;6.07;;
35294;SDS011;21413;48.032;7.764;2022-07-29T01:02:11;6.93;;;6.43;;
35294;SDS011;21413;48.032;7.764;2022-07-29T01:04:37;5.60;;;5.40;;
35294;SDS011;21413;48.032;7.764;2022-07-29T01:07:03;7.03;;;6.43;;
35294;SDS011;21413;48.032;7.764;2022-07-29T01:09:31;6.70;;;6.20;;
35294;SDS011;21413;48.032;7.764;2022-07-29T01:11:57;6.00;;;5.60;;
35294;SDS011;21413;48.032;7.764;2022-07-29T01:14:24;7.50;;;6.27;;
35294;SDS011;21413;48.032;7.764;2022-07-29T01:16:51;6.50;;;6.00;;
35294;SDS011;21413;48.032;7.764;2022-07-29T01:21:50;6.30;;;5.90;;
35294;SDS011;21413;48.032;7.764;2022-07-29T01:31:48;6.80;;;6.20;;
35294;SDS011;21413;48.032;7.764;2022-07-29T01:34:36;5.87;;;5.57;;
35294;SDS011;21413;48.032;7.764;2022-07-29T01:39:40;6.37;;;6.07;;
35294;SDS011;21413;48.032;7.764;2022-07-29T01:42:10;6.57;;;6.07;;
35294;SDS011;21413;48.032;7.764;2022-07-29T01:44:44;7.90;;;5.83;;
35294;SDS011;21413;48.032;7.764;2022-07-29T01:47:12;6.43;;;6.03;;
35294;SDS011;21413;48.032;7.764;2022-07-29T01:49:40;6.00;;;5.63;;
35294;SDS011;21413;48.032;7.764;2022-07-29T01:52:07;6.30;;;5.93;;
35294;SDS011;21413;48.032;7.764;2022-07-29T01:54:45;6.57;;;5.83;;
35294;SDS011;21413;48.032;7.764;2022-07-29T01:57:15;6.10;;;5.80;;
35294;SDS011;21413;48.032;7.764;2022-07-29T01:59:45;7.83;;;6.23;;
35294;SDS011;21413;48.032;7.764;2022-07-29T02:02:12;5.93;;;5.57;;
35294;SDS011;21413;48.032;7.764;2022-07-29T02:04:39;6.93;;;6.53;;
35294;SDS011;21413;48.032;7.764;2022-07-29T02:07:06;6.57;;;6.07;;
35294;SDS011;21413;48.032;7.764;2022-07-29T02:09:33;7.33;;;6.47;;
35294;SDS011;21413;48.032;7.764;2022-07-29T02:12:00;6.27;;;5.97;;
35294;SDS011;21413;48.032;7.764;2022-07-29T02:14:28;6.93;;;6.60;;
35294;SDS011;21413;48.032;7.764;2022-07-29T02:16:54;7.70;;;7.10;;
35294;SDS011;21413;48.032;7.764;2022-07-29T02:19:21;6.07;;;5.70;;
35294;SDS011;21413;48.032;7.764;2022-07-29T02:21:49;6.33;;;6.03;;
35294;SDS011;21413;48.032;7.764;2022-07-29T02:24:15;7.47;;;6.87;;
35294;SDS011;21413;48.032;7.764;2022-07-29T02:26:43;5.70;;;5.50;;
35294;SDS011;21413;48.032;7.764;2022-07-29T02:29:10;6.67;;;6.30;;
35294;SDS011;21413;48.032;7.764;2022-07-29T02:31:37;6.43;;;5.93;;
35294;SDS011;21413;48.032;7.764;2022-07-29T02:34:05;6.20;;;5.80;;
35294;SDS011;21413;48.032;7.764;2022-07-29T02:36:32;5.70;;;5.50;;
35294;SDS011;21413;48.032;7.764;2022-07-29T02:38:58;5.80;;;5.60;;
35294;SDS011;21413;48.032;7.764;2022-07-29T02:41:42;5.40;;;5.00;;
35294;SDS011;21413;48.032;7.764;2022-07-29T02:44:09;11.27;;;6.83;;
35294;SDS011;21413;48.032;7.764;2022-07-29T02:46:36;6.93;;;6.53;;
35294;SDS011;21413;48.032;7.764;2022-07-29T02:49:18;6.73;;;6.17;;
35294;SDS011;21413;48.032;7.764;2022-07-29T02:52:03;6.53;;;5.30;;
35294;SDS011;21413;48.032;7.764;2022-07-29T02:54:42;5.77;;;5.57;;
35294;SDS011;21413;48.032;7.764;2022-07-29T02:57:14;6.10;;;5.60;;
35294;SDS011;21413;48.032;7.764;2022-07-29T02:59:43;6.00;;;5.70;;
35294;SDS011;21413;48.032;7.764;2022-07-29T03:02:10;6.23;;;5.83;;
35294;SDS011;21413;48.032;7.764;2022-07-29T03:04:37;5.87;;;5.57;;
35294;SDS011;21413;48.032;7.764;2022-07-29T03:07:05;6.07;;;5.87;;
35294;SDS011;21413;48.032;7.764;2022-07-29T03:09:31;6.37;;;5.87;;
35294;SDS011;21413;48.032;7.764;2022-07-29T03:11:58;5.60;;;5.50;;
35294;SDS011;21413;48.032;7.764;2022-07-29T03:14:24;5.70;;;5.50;;
35294;SDS011;21413;48.032;7.764;2022-07-29T03:16:51;6.20;;;5.90;;
35294;SDS011;21413;48.032;7.764;2022-07-29T03:19:17;6.40;;;5.80;;
35294;SDS011;21413;48.032;7.764;2022-07-29T03:21:45;7.23;;;6.90;;
35294;SDS011;21413;48.032;7.764;2022-07-29T03:24:23;6.50;;;6.07;;
35294;SDS011;21413;48.032;7.764;2022-07-29T03:26:49;7.00;;;6.47;;
35294;SDS011;21413;48.032;7.764;2022-07-29T03:29:15;6.40;;;6.10;;
35294;SDS011;21413;48.032;7.764;2022-07-29T03:31:41;6.60;;;6.23;;
35294;SDS011;21413;48.032;7.764;2022-07-29T03:34:07;5.80;;;5.60;;
35294;SDS011;21413;48.032;7.764;2022-07-29T03:36:33;6.80;;;6.30;;
35294;SDS011;21413;48.032;7.764;2022-07-29T03:38:59;6.70;;;6.20;;
35294;SDS011;21413;48.032;7.764;2022-07-29T03:41:25;7.13;;;6.73;;
35294;SDS011;21413;48.032;7.764;2022-07-29T03:43:52;7.00;;;6.30;;
35294;SDS011;21413;48.032;7.764;2022-07-29T03:46:19;6.33;;;6.07;;
35294;SDS011;21413;48.032;7.764;2022-07-29T03:48:46;6.80;;;6.50;;
35294;SDS011;21413;48.032;7.764;2022-07-29T03:51:14;7.20;;;6.60;;
35294;SDS011;21413;48.032;7.764;2022-07-29T03:53:40;37.30;;;27.03;;
35294;SDS011;21413;48.032;7.764;2022-07-29T03:56:06;10.73;;;9.87;;
35294;SDS011;21413;48.032;7.764;2022-07-29T03:58:32;9.47;;;8.67;;
35294;SDS011;21413;48.032;7.764;2022-07-29T04:00:58;7.00;;;6.60;;
35294;SDS011;21413;48.032;7.764;2022-07-29T04:03:24;8.57;;;7.73;;
35294;SDS011;21413;48.032;7.764;2022-07-29T04:05:58;7.17;;;6.57;;
35294;SDS011;21413;48.032;7.764;2022-07-29T04:08:24;8.47;;;7.40;;
35294;SDS011;21413;48.032;7.764;2022-07-29T04:10:50;6.23;;;5.90;;
35294;SDS011;21413;48.032;7.764;2022-07-29T04:13:17;10.10;;;6.20;;
35294;SDS011;21413;48.032;7.764;2022-07-29T04:15:43;8.07;;;6.97;;
35294;SDS011;21413;48.032;7.764;2022-07-29T04:18:09;6.37;;;6.07;;
35294;SDS011;21413;48.032;7.764;2022-07-29T04:20:35;8.10;;;7.40;;
35294;SDS011;21413;48.032;7.764;2022-07-29T04:23:01;7.33;;;6.30;;
35294;SDS011;21413;48.032;7.764;2022-07-29T04:25:27;46.93;;;12.97;;
35294;SDS011;21413;48.032;7.764;2022-07-29T04:27:53;27.37;;;10.17;;
35294;SDS011;21413;48.032;7.764;2022-07-29T04:30:25;7.37;;;6.67;;
35294;SDS011;21413;48.032;7.764;2022-07-29T04:32:51;7.60;;;6.90;;
35294;SDS011;21413;48.032;7.764;2022-07-29T04:35:18;6.37;;;6.07;;
35294;SDS011;21413;48.032;7.764;2022-07-29T04:37:44;6.53;;;6.00;;
35294;SDS011;21413;48.032;7.764;2022-07-29T04:40:10;6.20;;;5.80;;
35294;SDS011;21413;48.032;7.764;2022-07-29T04:42:36;6.60;;;6.30;;
35294;SDS011;21413;48.032;7.764;2022-07-29T04:45:02;6.90;;;6.23;;
35294;SDS011;21413;48.032;7.764;2022-07-29T04:47:29;6.63;;;6.00;;
35294;SDS011;21413;48.032;7.764;2022-07-29T04:49:55;6.93;;;6.53;;
35294;SDS011;21413;48.032;7.764;2022-07-29T04:52:21;6.87;;;6.37;;
35294;SDS011;21413;48.032;7.764;2022-07-29T04:54:47;6.50;;;6.10;;
35294;SDS011;21413;48.032;7.764;2022-07-29T04:57:13;6.63;;;6.17;;
35294;SDS011;21413;48.032;7.764;2022-07-29T04:59:39;6.60;;;6.27;;
35294;SDS011;21413;48.032;7.764;2022-07-29T05:02:05;7.60;;;7.00;;
35294;SDS011;21413;48.032;7.764;2022-07-29T05:04:31;7.63;;;6.90;;
35294;SDS011;21413;48.032;7.764;2022-07-29T05:06:57;6.73;;;6.20;;
35294;SDS011;21413;48.032;7.764;2022-07-29T05:09:23;6.40;;;5.90;;
35294;SDS011;21413;48.032;7.764;2022-07-29T05:11:49;6.80;;;6.40;;
35294;SDS011;21413;48.032;7.764;2022-07-29T05:14:14;7.67;;;6.60;;
35294;SDS011;21413;48.032;7.764;2022-07-29T05:16:40;7.40;;;6.90;;
35294;SDS011;21413;48.032;7.764;2022-07-29T05:19:07;12.43;;;6.50;;
35294;SDS011;21413;48.032;7.764;2022-07-29T05:21:33;6.70;;;6.20;;
35294;SDS011;21413;48.032;7.764;2022-07-29T05:23:59;7.03;;;6.43;;
35294;SDS011;21413;48.032;7.764;2022-07-29T05:26:25;6.60;;;6.20;;
35294;SDS011;21413;48.032;7.764;2022-07-29T05:28:51;6.53;;;6.13;;
35294;SDS011;21413;48.032;7.764;2022-07-29T05:31:18;9.17;;;6.97;;
35294;SDS011;21413;48.032;7.764;2022-07-29T05:33:44;8.07;;;7.27;;
35294;SDS011;21413;48.032;7.764;2022-07-29T05:36:10;7.17;;;6.57;;
35294;SDS011;21413;48.032;7.764;2022-07-29T05:38:36;7.90;;;7.20;;
35294;SDS011;21413;48.032;7.764;2022-07-29T05:41:03;9.13;;;6.77;;
35294;SDS011;21413;48.032;7.764;2022-07-29T05:43:29;8.00;;;7.20;;
35294;SDS011;21413;48.032;7.764;2022-07-29T05:45:55;10.63;;;7.20;;
35294;SDS011;21413;48.032;7.764;2022-07-29T05:48:21;6.93;;;6.37;;
35294;SDS011;21413;48.032;7.764;2022-07-29T05:50:47;7.87;;;6.90;;
35294;SDS011;21413;48.032;7.764;2022-07-29T05:53:13;7.90;;;7.10;;
35294;SDS011;21413;48.032;7.764;2022-07-29T05:55:39;7.93;;;6.50;;
35294;SDS011;21413;48.032;7.764;2022-07-29T05:58:05;7.43;;;6.57;;
35294;SDS011;21413;48.032;7.764;2022-07-29T06:00:31;7.20;;;6.70;;
35294;SDS011;21413;48.032;7.764;2022-07-29T06:02:57;6.73;;;6.33;;
35294;SDS011;21413;48.032;7.764;2022-07-29T06:05:23;6.80;;;6.40;;
35294;SDS011;21413;48.032;7.764;2022-07-29T06:07:49;7.10;;;6.23;;
35294;SDS011;21413;48.032;7.764;2022-07-29T06:10:15;6.97;;;6.43;;
35294;SDS011;21413;48.032;7.764;2022-07-29T06:12:41;11.83;;;6.97;;
35294;SDS011;21413;48.032;7.764;2022-07-29T06:15:07;8.23;;;7.03;;
35294;SDS011;21413;48.032;7.764;2022-07-29T06:17:33;7.07;;;6.47;;
35294;SDS011;21413;48.032;7.764;2022-07-29T06:19:59;6.60;;;6.10;;
35294;SDS011;21413;48.032;7.764;2022-07-29T06:22:25;8.60;;;7.10;;
35294;SDS011;21413;48.032;7.764;2022-07-29T06:24:51;15.77;;;5.90;;
35294;SDS011;21413;48.032;7.764;2022-07-29T06:27:17;6.70;;;6.10;;
35294;SDS011;21413;48.032;7.764;2022-07-29T06:29:45;6.57;;;5.90;;
35294;SDS011;21413;48.032;7.764;2022-07-29T06:32:11;7.57;;;6.03;;
35294;SDS011;21413;48.032;7.764;2022-07-29T06:34:37;8.00;;;6.37;;
35294;SDS011;21413;48.032;7.764;2022-07-29T06:37:07;7.50;;;6.03;;
35294;SDS011;21413;48.032;7.764;2022-07-29T06:39:34;5.87;;;5.37;;
35294;SDS011;21413;48.032;7.764;2022-07-29T06:42:01;7.23;;;5.30;;
35294;SDS011;21413;48.032;7.764;2022-07-29T06:44:27;12.87;;;5.30;;
35294;SDS011;21413;48.032;7.764;2022-07-29T06:46:53;7.47;;;5.23;;
35294;SDS011;21413;48.032;7.764;2022-07-29T06:49:19;6.43;;;5.10;;
35294;SDS011;21413;48.032;7.764;2022-07-29T06:51:45;7.07;;;4.13;;
35294;SDS011;21413;48.032;7.764;2022-07-29T06:54:11;8.20;;;4.60;;
35294;SDS011;21413;48.032;7.764;2022-07-29T06:56:40;5.80;;;4.27;;
35294;SDS011;21413;48.032;7.764;2022-07-29T06:59:08;11.83;;;4.70;;
35294;SDS011;21413;48.032;7.764;2022-07-29T07:01:38;6.43;;;4.27;;
35294;SDS011;21413;48.032;7.764;2022-07-29T07:04:04;3.87;;;3.63;;
35294;SDS011;21413;48.032;7.764;2022-07-29T07:06:30;5.90;;;4.13;;
35294;SDS011;21413;48.032;7.764;2022-07-29T07:08:56;5.50;;;4.83;;
35294;SDS011;21413;48.032;7.764;2022-07-29T07:11:22;10.63;;;4.57;;
35294;SDS011;21413;48.032;7.764;2022-07-29T07:13:48;4.10;;;4.00;;
35294;SDS011;21413;48.032;7.764;2022-07-29T07:16:14;5.50;;;5.00;;
35294;SDS011;21413;48.032;7.764;2022-07-29T07:18:40;8.07;;;4.00;;
35294;SDS011;21413;48.032;7.764;2022-07-29T07:21:06;4.20;;;4.07;;
35294;SDS011;21413;48.032;7.764;2022-07-29T07:23:32;10.43;;;5.20;;
35294;SDS011;21413;48.032;7.764;2022-07-29T07:25:58;4.93;;;4.53;;
35294;SDS011;21413;48.032;7.764;2022-07-29T07:28:24;4.33;;;3.90;;
35294;SDS011;21413;48.032;7.764;2022-07-29T07:30:50;8.90;;;4.63;;
35294;SDS011;21413;48.032;7.764;2022-07-29T07:33:15;5.37;;;4.30;;
35294;SDS011;21413;48.032;7.764;2022-07-29T07:35:41;4.20;;;4.00;;
35294;SDS011;21413;48.032;7.764;2022-07-29T07:38:09;4.77;;;4.47;;
35294;SDS011;21413;48.032;7.764;2022-07-29T07:40:35;4.63;;;4.37;;
35294;SDS011;21413;48.032;7.764;2022-07-29T07:43:01;9.10;;;3.90;;
35294;SDS011;21413;48.032;7.764;2022-07-29T07:45:27;4.43;;;4.13;;
35294;SDS011;21413;48.032;7.764;2022-07-29T07:47:53;4.80;;;4.10;;
35294;SDS011;21413;48.032;7.764;2022-07-29T07:50:19;4.63;;;4.20;;
35294;SDS011;21413;48.032;7.764;2022-07-29T07:52:45;4.37;;;3.97;;
35294;SDS011;21413;48.032;7.764;2022-07-29T07:55:11;4.10;;;3.90;;
35294;SDS011;21413;48.032;7.764;2022-07-29T07:57:37;9.00;;;4.20;;
35294;SDS011;21413;48.032;7.764;2022-07-29T08:00:03;4.23;;;3.93;;
35294;SDS011;21413;48.032;7.764;2022-07-29T08:02:29;4.97;;;4.50;;
35294;SDS011;21413;48.032;7.764;2022-07-29T08:04:55;6.27;;;4.20;;
35294;SDS011;21413;48.032;7.764;2022-07-29T08:07:21;4.33;;;4.03;;
35294;SDS011;21413;48.032;7.764;2022-07-29T08:09:47;4.83;;;4.20;;
35294;SDS011;21413;48.032;7.764;2022-07-29T08:12:13;4.43;;;4.03;;
35294;SDS011;21413;48.032;7.764;2022-07-29T08:14:39;4.30;;;3.90;;
35294;SDS011;21413;48.032;7.764;2022-07-29T08:17:05;3.80;;;3.70;;
35294;SDS011;21413;48.032;7.764;2022-07-29T08:19:31;5.30;;;3.53;;
35294;SDS011;21413;48.032;7.764;2022-07-29T08:21:57;5.30;;;4.20;;
35294;SDS011;21413;48.032;7.764;2022-07-29T08:24:23;5.47;;;4.90;;
35294;SDS011;21413;48.032;7.764;2022-07-29T08:27:07;4.83;;;4.20;;
35294;SDS011;21413;48.032;7.764;2022-07-29T08:29:34;4.40;;;3.77;;
35294;SDS011;21413;48.032;7.764;2022-07-29T08:32:00;6.80;;;4.03;;
35294;SDS011;21413;48.032;7.764;2022-07-29T08:34:26;6.33;;;3.77;;
35294;SDS011;21413;48.032;7.764;2022-07-29T08:36:52;7.60;;;4.47;;
35294;SDS011;21413;48.032;7.764;2022-07-29T08:39:18;5.30;;;3.43;;
35294;SDS011;21413;48.032;7.764;2022-07-29T08:41:44;8.03;;;4.23;;
35294;SDS011;21413;48.032;7.764;2022-07-29T08:44:10;3.57;;;3.27;;
35294;SDS011;21413;48.032;7.764;2022-07-29T08:46:39;3.30;;;3.20;;
35294;SDS011;21413;48.032;7.764;2022-07-29T08:49:05;9.50;;;3.80;;
35294;SDS011;21413;48.032;7.764;2022-07-29T08:51:31;3.60;;;3.40;;
35294;SDS011;21413;48.032;7.764;2022-07-29T08:53:57;12.07;;;3.57;;
35294;SDS011;21413;48.032;7.764;2022-07-29T08:56:24;5.63;;;3.80;;
35294;SDS011;21413;48.032;7.764;2022-07-29T08:58:50;6.20;;;3.60;;
35294;SDS011;21413;48.032;7.764;2022-07-29T09:01:16;5.97;;;2.60;;
35294;SDS011;21413;48.032;7.764;2022-07-29T09:03:43;3.33;;;2.87;;
35294;SDS011;21413;48.032;7.764;2022-07-29T09:06:11;10.90;;;3.53;;
35294;SDS011;21413;48.032;7.764;2022-07-29T09:08:38;3.87;;;3.67;;
35294;SDS011;21413;48.032;7.764;2022-07-29T09:11:04;3.40;;;3.20;;
35294;SDS011;21413;48.032;7.764;2022-07-29T09:13:32;4.10;;;3.10;;
35294;SDS011;21413;48.032;7.764;2022-07-29T09:15:58;5.50;;;3.10;;
35294;SDS011;21413;48.032;7.764;2022-07-29T09:21:00;5.80;;;2.93;;
35294;SDS011;21413;48.032;7.764;2022-07-29T09:24:04;5.50;;;4.27;;
35294;SDS011;21413;48.032;7.764;2022-07-29T09:26:32;5.30;;;3.70;;
35294;SDS011;21413;48.032;7.764;2022-07-29T09:28:58;7.10;;;2.70;;
35294;SDS011;21413;48.032;7.764;2022-07-29T09:31:34;3.50;;;3.20;;
35294;SDS011;21413;48.032;7.764;2022-07-29T09:34:00;5.57;;;3.67;;
35294;SDS011;21413;48.032;7.764;2022-07-29T09:36:26;3.70;;;3.50;;
35294;SDS011;21413;48.032;7.764;2022-07-29T09:39:01;12.63;;;3.30;;
35294;SDS011;21413;48.032;7.764;2022-07-29T09:41:28;5.90;;;3.37;;
35294;SDS011;21413;48.032;7.764;2022-07-29T09:43:57;4.33;;;3.30;;
35294;SDS011;21413;48.032;7.764;2022-07-29T09:46:23;7.33;;;3.27;;
35294;SDS011;21413;48.032;7.764;2022-07-29T09:49:05;5.33;;;3.20;;
35294;SDS011;21413;48.032;7.764;2022-07-29T09:51:32;10.23;;;3.37;;
35294;SDS011;21413;48.032;7.764;2022-07-29T09:53:58;4.43;;;3.83;;
35294;SDS011;21413;48.032;7.764;2022-07-29T09:56:40;4.83;;;3.20;;
35294;SDS011;21413;48.032;7.764;2022-07-29T09:59:07;7.83;;;3.93;;
35294;SDS011;21413;48.032;7.764;2022-07-29T10:01:33;3.13;;;3.03;;
35294;SDS011;21413;48.032;7.764;2022-07-29T10:04:00;10.77;;;3.90;;
35294;SDS011;21413;48.032;7.764;2022-07-29T10:06:30;3.63;;;3.20;;
35294;SDS011;21413;48.032;7.764;2022-07-29T10:09:06;6.67;;;3.53;;
35294;SDS011;21413;48.032;7.764;2022-07-29T10:11:33;3.50;;;3.30;;
35294;SDS011;21413;48.032;7.764;2022-07-29T10:13:59;5.77;;;3.53;;
35294;SDS011;21413;48.032;7.764;2022-07-29T10:16:27;5.90;;;3.30;;
35294;SDS011;21413;48.032;7.764;2022-07-29T10:18:57;3.47;;;3.17;;
35294;SDS011;21413;48.032;7.764;2022-07-29T10:21:24;4.57;;;3.00;;
35294;SDS011;21413;48.032;7.764;2022-07-29T10:23:50;3.67;;;3.20;;
35294;SDS011;21413;48.032;7.764;2022-07-29T10:26:16;10.23;;;3.40;;
35294;SDS011;21413;48.032;7.764;2022-07-29T10:28:43;7.90;;;4.07;;
35294;SDS011;21413;48.032;7.764;2022-07-29T10:31:11;5.40;;;3.30;;
35294;SDS011;21413;48.032;7.764;2022-07-29T10:34:00;7.10;;;3.27;;
35294;SDS011;21413;48.032;7.764;2022-07-29T10:36:48;6.57;;;3.20;;
35294;SDS011;21413;48.032;7.764;2022-07-29T10:41:53;9.30;;;3.63;;
35294;SDS011;21413;48.032;7.764;2022-07-29T10:44:22;3.77;;;3.13;;
35294;SDS011;21413;48.032;7.764;2022-07-29T10:46:48;5.47;;;3.40;;
35294;SDS011;21413;48.032;7.764;2022-07-29T10:49:19;3.53;;;3.33;;
35294;SDS011;21413;48.032;7.764;2022-07-29T10:57:18;6.03;;;3.33;;
35294;SDS011;21413;48.032;7.764;2022-07-29T11:00:25;4.20;;;3.60;;
35294;SDS011;21413;48.032;7.764;2022-07-29T11:05:06;3.47;;;3.20;;
35294;SDS011;21413;48.032;7.764;2022-07-29T11:07:33;3.40;;;3.20;;
35294;SDS011;21413;48.032;7.764;2022-07-29T11:23:00;5.70;;;2.80;;
35294;SDS011;21413;48.032;7.764;2022-07-29T11:25:26;5.23;;;3.30;;
35294;SDS011;21413;48.032;7.764;2022-07-29T11:27:53;6.60;;;3.10;;
35294;SDS011;21413;48.032;7.764;2022-07-29T11:30:19;3.20;;;3.10;;
35294;SDS011;21413;48.032;7.764;2022-07-29T11:32:45;3.50;;;3.23;;
35294;SDS011;21413;48.032;7.764;2022-07-29T11:35:19;6.77;;;3.20;;
35294;SDS011;21413;48.032;7.764;2022-07-29T11:37:47;7.67;;;3.10;;
35294;SDS011;21413;48.032;7.764;2022-07-29T11:40:32;11.83;;;3.03;;
35294;SDS011;21413;48.032;7.764;2022-07-29T11:42:58;3.90;;;3.40;;
35294;SDS011;21413;48.032;7.764;2022-07-29T11:45:25;6.40;;;3.37;;
35294;SDS011;21413;48.032;7.764;2022-07-29T11:47:57;3.70;;;3.33;;
35294;SDS011;21413;48.032;7.764;2022-07-29T11:50:30;6.83;;;3.50;;
35294;SDS011;21413;48.032;7.764;2022-07-29T11:52:57;8.50;;;3.30;;
35294;SDS011;21413;48.032;7.764;2022-07-29T11:55:23;5.00;;;2.73;;
35294;SDS011;21413;48.032;7.764;2022-07-29T11:57:51;11.97;;;2.60;;
35294;SDS011;21413;48.032;7.764;2022-07-29T12:02:49;11.40;;;3.47;;
35294;SDS011;21413;48.032;7.764;2022-07-29T12:05:16;5.50;;;3.73;;
35294;SDS011;21413;48.032;7.764;2022-07-29T12:07:42;7.83;;;4.10;;
35294;SDS011;21413;48.032;7.764;2022-07-29T12:10:08;4.77;;;4.00;;
35294;SDS011;21413;48.032;7.764;2022-07-29T12:12:34;11.37;;;3.77;;
35294;SDS011;21413;48.032;7.764;2022-07-29T12:15:19;6.10;;;3.40;;
35294;SDS011;21413;48.032;7.764;2022-07-29T12:17:45;7.03;;;3.47;;
35294;SDS011;21413;48.032;7.764;2022-07-29T12:20:11;3.67;;;3.43;;
35294;SDS011;21413;48.032;7.764;2022-07-29T12:22:39;11.70;;;3.30;;
35294;SDS011;21413;48.032;7.764;2022-07-29T12:27:32;4.43;;;3.30;;
35294;SDS011;21413;48.032;7.764;2022-07-29T12:29:59;4.80;;;2.77;;
35294;SDS011;21413;48.032;7.764;2022-07-29T12:32:38;4.70;;;2.80;;
35294;SDS011;21413;48.032;7.764;2022-07-29T12:35:05;6.40;;;3.10;;
35294;SDS011;21413;48.032;7.764;2022-07-29T12:37:33;8.77;;;3.30;;
35294;SDS011;21413;48.032;7.764;2022-07-29T12:40:00;3.40;;;3.17;;
35294;SDS011;21413;48.032;7.764;2022-07-29T12:42:26;2.90;;;2.70;;
35294;SDS011;21413;48.032;7.764;2022-07-29T12:44:52;6.53;;;3.10;;
35294;SDS011;21413;48.032;7.764;2022-07-29T12:47:18;3.37;;;2.60;;
35294;SDS011;21413;48.032;7.764;2022-07-29T12:49:45;2.70;;;2.60;;
35294;SDS011;21413;48.032;7.764;2022-07-29T12:54:56;2.90;;;2.70;;
35294;SDS011;21413;48.032;7.764;2022-07-29T12:57:22;3.30;;;3.10;;
35294;SDS011;21413;48.032;7.764;2022-07-29T13:02:54;2.93;;;2.83;;
35294;SDS011;21413;48.032;7.764;2022-07-29T13:05:20;4.80;;;2.90;;
35294;SDS011;21413;48.032;7.764;2022-07-29T13:07:46;6.80;;;2.83;;
35294;SDS011;21413;48.032;7.764;2022-07-29T13:10:14;4.83;;;3.27;;
35294;SDS011;21413;48.032;7.764;2022-07-29T13:15:25;2.90;;;2.70;;
35294;SDS011;21413;48.032;7.764;2022-07-29T13:17:51;2.90;;;2.57;;
35294;SDS011;21413;48.032;7.764;2022-07-29T13:20:17;4.10;;;2.63;;
35294;SDS011;21413;48.032;7.764;2022-07-29T13:22:46;3.40;;;3.10;;
35294;SDS011;21413;48.032;7.764;2022-07-29T13:25:12;3.40;;;3.20;;
35294;SDS011;21413;48.032;7.764;2022-07-29T13:27:38;5.77;;;2.80;;
35294;SDS011;21413;48.032;7.764;2022-07-29T13:30:06;4.20;;;3.00;;
35294;SDS011;21413;48.032;7.764;2022-07-29T13:32:32;5.53;;;2.70;;
35294;SDS011;21413;48.032;7.764;2022-07-29T13:35:04;2.77;;;2.60;;
35294;SDS011;21413;48.032;7.764;2022-07-29T13:37:30;7.90;;;2.60;;
35294;SDS011;21413;48.032;7.764;2022-07-29T13:39:58;2.83;;;2.23;;
35294;SDS011;21413;48.032;7.764;2022-07-29T13:42:25;8.37;;;2.93;;
35294;SDS011;21413;48.032;7.764;2022-07-29T13:44:51;3.53;;;2.63;;
35294;SDS011;21413;48.032;7.764;2022-07-29T13:47:18;3.80;;;2.20;;
35294;SDS011;21413;48.032;7.764;2022-07-29T13:49:44;2.60;;;2.10;;
35294;SDS011;21413;48.032;7.764;2022-07-29T13:52:10;9.87;;;2.77;;
35294;SDS011;21413;48.032;7.764;2022-07-29T13:54:36;7.50;;;2.60;;
35294;SDS011;21413;48.032;7.764;2022-07-29T13:57:05;2.17;;;2.17;;
35294;SDS011;21413;48.032;7.764;2022-07-29T13:59:32;6.43;;;2.40;;
35294;SDS011;21413;48.032;7.764;2022-07-29T14:01:58;3.00;;;2.80;;
35294;SDS011;21413;48.032;7.764;2022-07-29T14:04:24;4.63;;;2.37;;
35294;SDS011;21413;48.032;7.764;2022-07-29T14:06:50;7.43;;;2.77;;
35294;SDS011;21413;48.032;7.764;2022-07-29T14:09:16;2.10;;;2.00;;
35294;SDS011;21413;48.032;7.764;2022-07-29T14:11:42;10.60;;;2.90;;
35294;SDS011;21413;48.032;7.764;2022-07-29T14:14:09;2.93;;;2.47;;
35294;SDS011;21413;48.032;7.764;2022-07-29T14:16:35;6.03;;;2.60;;
35294;SDS011;21413;48.032;7.764;2022-07-29T14:19:01;7.80;;;2.00;;
35294;SDS011;21413;48.032;7.764;2022-07-29T14:21:27;2.70;;;2.20;;
35294;SDS011;21413;48.032;7.764;2022-07-29T14:23:53;8.20;;;2.27;;
35294;SDS011;21413;48.032;7.764;2022-07-29T14:26:20;2.30;;;2.20;;
35294;SDS011;21413;48.032;7.764;2022-07-29T14:28:47;2.73;;;2.63;;
35294;SDS011;21413;48.032;7.764;2022-07-29T14:31:13;2.50;;;2.37;;
35294;SDS011;21413;48.032;7.764;2022-07-29T14:33:39;4.23;;;2.50;;
35294;SDS011;21413;48.032;7.764;2022-07-29T14:36:05;2.50;;;2.40;;
35294;SDS011;21413;48.032;7.764;2022-07-29T14:38:31;3.97;;;2.33;;
35294;SDS011;21413;48.032;7.764;2022-07-29T14:40:57;2.33;;;2.10;;
35294;SDS011;21413;48.032;7.764;2022-07-29T14:43:23;3.70;;;1.77;;
35294;SDS011;21413;48.032;7.764;2022-07-29T14:45:49;2.93;;;1.93;;
35294;SDS011;21413;48.032;7.764;2022-07-29T14:48:15;2.20;;;2.20;;
35294;SDS011;21413;48.032;7.764;2022-07-29T14:50:41;2.13;;;2.03;;
35294;SDS011;21413;48.032;7.764;2022-07-29T14:53:07;6.00;;;2.20;;
35294;SDS011;21413;48.032;7.764;2022-07-29T14:55:33;3.70;;;1.93;;
35294;SDS011;21413;48.032;7.764;2022-07-29T14:57:59;7.20;;;1.90;;
35294;SDS011;21413;48.032;7.764;2022-07-29T15:00:25;4.17;;;2.27;;
35294;SDS011;21413;48.032;7.764;2022-07-29T15:02:51;2.03;;;1.93;;
35294;SDS011;21413;48.032;7.764;2022-07-29T15:05:17;3.83;;;3.63;;
35294;SDS011;21413;48.032;7.764;2022-07-29T15:07:43;7.10;;;2.20;;
35294;SDS011;21413;48.032;7.764;2022-07-29T15:10:09;2.30;;;2.10;;
35294;SDS011;21413;48.032;7.764;2022-07-29T15:12:35;9.97;;;3.17;;
35294;SDS011;21413;48.032;7.764;2022-07-29T15:15:01;1.70;;;1.70;;
35294;SDS011;21413;48.032;7.764;2022-07-29T15:17:27;2.10;;;1.97;;
35294;SDS011;21413;48.032;7.764;2022-07-29T15:19:53;5.03;;;2.00;;
35294;SDS011;21413;48.032;7.764;2022-07-29T15:22:19;3.63;;;1.90;;
35294;SDS011;21413;48.032;7.764;2022-07-29T15:24:45;3.70;;;1.87;;
35294;SDS011;21413;48.032;7.764;2022-07-29T15:27:11;2.10;;;1.80;;
35294;SDS011;21413;48.032;7.764;2022-07-29T15:29:39;3.93;;;2.00;;
35294;SDS011;21413;48.032;7.764;2022-07-29T15:32:06;1.83;;;1.60;;
35294;SDS011;21413;48.032;7.764;2022-07-29T15:34:32;2.00;;;1.90;;
35294;SDS011;21413;48.032;7.764;2022-07-29T15:36:58;2.40;;;2.30;;
35294;SDS011;21413;48.032;7.764;2022-07-29T15:39:24;2.10;;;2.00;;